sensor_id;sensor_type;location;lat;lon;timestamp;pressure;altitude;pressure_sealevel;temperature;humidity
4617;BME280;2321;42.704;23.384;2023-02-10T00:00:35;97280.00;;;-4.47;89.80
4617;BME280;2321;42.704;23.384;2023-02-10T00:03:01;97271.97;;;-4.66;91.36
4617;BME280;2321;42.704;23.384;2023-02-10T00:05:28;97277.19;;;-4.66;92.65
4617;BME280;2321;42.704;23.384;2023-02-10T00:07:55;97274.78;;;-4.73;94.41
4617;BME280;2321;42.704;23.384;2023-02-10T00:10:22;97276.72;;;-4.79;96.21
4617;BME280;2321;42.704;23.384;2023-02-10T00:12:49;97277.63;;;-4.81;96.81
4617;BME280;2321;42.704;23.384;2023-02-10T00:15:17;97273.53;;;-4.88;97.62
4617;BME280;2321;42.704;23.384;2023-02-10T00:17:44;97196.06;;;-5.31;97.43
4617;BME280;2321;42.704;23.384;2023-02-10T00:20:11;97265.88;;;-4.93;98.04
4617;BME280;2321;42.704;23.384;2023-02-10T00:22:38;97269.50;;;-4.98;98.60
4617;BME280;2321;42.704;23.384;2023-02-10T00:25:05;97271.22;;;-4.97;99.08
4617;BME280;2321;42.704;23.384;2023-02-10T00:27:32;97265.59;;;-5.12;99.76
4617;BME280;2321;42.704;23.384;2023-02-10T00:29:59;97260.09;;;-5.03;100.00
4617;BME280;2321;42.704;23.384;2023-02-10T00:32:27;97269.34;;;-4.94;99.50
4617;BME280;2321;42.704;23.384;2023-02-10T00:34:54;97261.88;;;-5.03;99.84
4617;BME280;2321;42.704;23.384;2023-02-10T00:37:21;97265.56;;;-5.10;100.00
4617;BME280;2321;42.704;23.384;2023-02-10T00:39:48;97252.47;;;-5.07;100.00
4617;BME280;2321;42.704;23.384;2023-02-10T00:42:15;97250.09;;;-5.15;100.00
4617;BME280;2321;42.704;23.384;2023-02-10T00:44:42;97246.31;;;-5.05;100.00
4617;BME280;2321;42.704;23.384;2023-02-10T00:47:09;97248.59;;;-5.22;100.00
4617;BME280;2321;42.704;23.384;2023-02-10T00:49:37;97241.13;;;-5.33;100.00
4617;BME280;2321;42.704;23.384;2023-02-10T00:52:04;97238.66;;;-5.37;100.00
4617;BME280;2321;42.704;23.384;2023-02-10T00:54:31;97234.19;;;-5.33;100.00
4617;BME280;2321;42.704;23.384;2023-02-10T00:56:58;97241.78;;;-5.27;100.00
4617;BME280;2321;42.704;23.384;2023-02-10T00:59:25;97242.44;;;-5.18;100.00
4617;BME280;2321;42.704;23.384;2023-02-10T01:01:52;97236.94;;;-5.38;100.00
4617;BME280;2321;42.704;23.384;2023-02-10T01:04:19;97229.16;;;-5.38;100.00
4617;BME280;2321;42.704;23.384;2023-02-10T01:06:47;97231.22;;;-5.49;100.00
4617;BME280;2321;42.704;23.384;2023-02-10T01:09:14;97232.22;;;-5.53;100.00
4617;BME280;2321;42.704;23.384;2023-02-10T01:11:42;97228.91;;;-5.59;100.00
4617;BME280;2321;42.704;23.384;2023-02-10T01:14:10;97225.63;;;-5.65;100.00
4617;BME280;2321;42.704;23.384;2023-02-10T01:16:37;97223.94;;;-5.66;100.00
4617;BME280;2321;42.704;23.384;2023-02-10T01:19:04;97227.09;;;-5.57;100.00
4617;BME280;2321;42.704;23.384;2023-02-10T01:21:31;97218.34;;;-5.52;100.00
4617;BME280;2321;42.704;23.384;2023-02-10T01:23:59;97219.72;;;-5.40;100.00
4617;BME280;2321;42.704;23.384;2023-02-10T01:26:44;97215.38;;;-5.40;100.00
4617;BME280;2321;42.704;23.384;2023-02-10T01:29:11;97214.19;;;-5.58;100.00
4617;BME280;2321;42.704;23.384;2023-02-10T01:31:38;97216.66;;;-5.55;100.00
4617;BME280;2321;42.704;23.384;2023-02-10T01:34:05;97219.25;;;-5.55;100.00
4617;BME280;2321;42.704;23.384;2023-02-10T01:36:32;97210.16;;;-5.69;100.00
4617;BME280;2321;42.704;23.384;2023-02-10T01:39:00;97212.75;;;-5.69;100.00
4617;BME280;2321;42.704;23.384;2023-02-10T01:41:27;97212.34;;;-5.85;100.00
4617;BME280;2321;42.704;23.384;2023-02-10T01:43:57;97207.66;;;-5.72;100.00
4617;BME280;2321;42.704;23.384;2023-02-10T01:46:25;97206.97;;;-5.79;100.00
4617;BME280;2321;42.704;23.384;2023-02-10T01:48:53;97203.41;;;-5.74;100.00
4617;BME280;2321;42.704;23.384;2023-02-10T01:51:25;97197.13;;;-5.67;100.00
4617;BME280;2321;42.704;23.384;2023-02-10T01:53:55;97201.50;;;-5.69;100.00
4617;BME280;2321;42.704;23.384;2023-02-10T01:56:23;97193.63;;;-5.66;100.00
4617;BME280;2321;42.704;23.384;2023-02-10T01:58:50;97202.47;;;-5.72;100.00
4617;BME280;2321;42.704;23.384;2023-02-10T02:01:17;97192.84;;;-5.68;100.00
4617;BME280;2321;42.704;23.384;2023-02-10T02:03:44;97183.97;;;-5.61;100.00
4617;BME280;2321;42.704;23.384;2023-02-10T02:06:11;97183.69;;;-5.51;100.00
4617;BME280;2321;42.704;23.384;2023-02-10T02:08:38;97183.56;;;-5.47;100.00
4617;BME280;2321;42.704;23.384;2023-02-10T02:11:20;97178.13;;;-5.68;100.00
4617;BME280;2321;42.704;23.384;2023-02-10T02:14:05;97169.88;;;-5.82;100.00
4617;BME280;2321;42.704;23.384;2023-02-10T02:16:44;97182.16;;;-5.87;100.00
4617;BME280;2321;42.704;23.384;2023-02-10T02:19:35;97172.84;;;-5.95;100.00
4617;BME280;2321;42.704;23.384;2023-02-10T02:22:29;97181.81;;;-6.05;100.00
4617;BME280;2321;42.704;23.384;2023-02-10T02:25:09;97171.53;;;-6.08;100.00
4617;BME280;2321;42.704;23.384;2023-02-10T02:28:05;97167.00;;;-6.02;100.00
4617;BME280;2321;42.704;23.384;2023-02-10T02:31:11;97170.03;;;-5.87;100.00
4617;BME280;2321;42.704;23.384;2023-02-10T02:33:47;97171.84;;;-5.89;100.00
4617;BME280;2321;42.704;23.384;2023-02-10T02:36:20;97157.25;;;-5.93;100.00
4617;BME280;2321;42.704;23.384;2023-02-10T02:38:49;97154.41;;;-5.85;100.00
4617;BME280;2321;42.704;23.384;2023-02-10T02:41:22;97147.84;;;-5.97;100.00
4617;BME280;2321;42.704;23.384;2023-02-10T02:43:50;97156.97;;;-5.84;100.00
4617;BME280;2321;42.704;23.384;2023-02-10T02:46:25;97166.38;;;-5.80;100.00
4617;BME280;2321;42.704;23.384;2023-02-10T02:49:02;97163.38;;;-5.96;100.00
4617;BME280;2321;42.704;23.384;2023-02-10T02:51:44;97171.84;;;-5.89;100.00
4617;BME280;2321;42.704;23.384;2023-02-10T02:54:22;97160.69;;;-5.93;100.00
4617;BME280;2321;42.704;23.384;2023-02-10T02:56:56;97159.94;;;-5.96;100.00
4617;BME280;2321;42.704;23.384;2023-02-10T02:59:30;97165.38;;;-6.06;100.00
4617;BME280;2321;42.704;23.384;2023-02-10T03:02:01;97162.22;;;-6.16;100.00
4617;BME280;2321;42.704;23.384;2023-02-10T03:04:33;97157.31;;;-6.25;100.00
4617;BME280;2321;42.704;23.384;2023-02-10T03:07:00;97158.41;;;-6.34;100.00
4617;BME280;2321;42.704;23.384;2023-02-10T03:09:28;97167.34;;;-6.45;100.00
4617;BME280;2321;42.704;23.384;2023-02-10T03:11:55;97152.00;;;-6.52;100.00
4617;BME280;2321;42.704;23.384;2023-02-10T03:14:22;97159.69;;;-6.49;100.00
4617;BME280;2321;42.704;23.384;2023-02-10T03:16:49;97157.25;;;-6.54;100.00
4617;BME280;2321;42.704;23.384;2023-02-10T03:19:17;97157.25;;;-6.54;100.00
4617;BME280;2321;42.704;23.384;2023-02-10T03:21:45;97162.09;;;-6.41;100.00
4617;BME280;2321;42.704;23.384;2023-02-10T03:24:12;97164.53;;;-6.37;100.00
4617;BME280;2321;42.704;23.384;2023-02-10T03:26:39;97165.41;;;-6.38;100.00
4617;BME280;2321;42.704;23.384;2023-02-10T03:29:07;97171.44;;;-6.36;100.00
4617;BME280;2321;42.704;23.384;2023-02-10T03:31:33;97166.34;;;-6.39;100.00
4617;BME280;2321;42.704;23.384;2023-02-10T03:34:00;97163.03;;;-6.44;100.00
4617;BME280;2321;42.704;23.384;2023-02-10T03:36:27;97166.66;;;-6.51;100.00
4617;BME280;2321;42.704;23.384;2023-02-10T03:38:56;97162.38;;;-6.52;100.00
4617;BME280;2321;42.704;23.384;2023-02-10T03:41:23;97157.06;;;-6.48;100.00
4617;BME280;2321;42.704;23.384;2023-02-10T03:43:49;97151.81;;;-6.46;100.00
4617;BME280;2321;42.704;23.384;2023-02-10T03:46:16;97151.91;;;-6.49;100.00
4617;BME280;2321;42.704;23.384;2023-02-10T03:48:43;97157.25;;;-6.54;100.00
4617;BME280;2321;42.704;23.384;2023-02-10T03:51:11;97152.22;;;-6.60;100.00
4617;BME280;2321;42.704;23.384;2023-02-10T03:53:38;97152.22;;;-6.60;100.00
4617;BME280;2321;42.704;23.384;2023-02-10T03:56:07;97149.63;;;-6.60;100.00
4617;BME280;2321;42.704;23.384;2023-02-10T03:58:34;97144.56;;;-6.65;100.00
4617;BME280;2321;42.704;23.384;2023-02-10T04:01:08;97134.03;;;-6.59;100.00
4617;BME280;2321;42.704;23.384;2023-02-10T04:03:35;97142.38;;;-6.47;100.00
4617;BME280;2321;42.704;23.384;2023-02-10T04:06:02;97145.06;;;-6.52;100.00
4617;BME280;2321;42.704;23.384;2023-02-10T04:08:29;97145.88;;;-6.50;100.00
4617;BME280;2321;42.704;23.384;2023-02-10T04:10:56;97140.28;;;-6.66;100.00
4617;BME280;2321;42.704;23.384;2023-02-10T04:13:25;97149.91;;;-6.71;100.00
4617;BME280;2321;42.704;23.384;2023-02-10T04:16:00;97141.84;;;-6.60;100.00
4617;BME280;2321;42.704;23.384;2023-02-10T04:18:27;97146.91;;;-6.56;100.00
4617;BME280;2321;42.704;23.384;2023-02-10T04:20:54;97145.41;;;-6.64;100.00
4617;BME280;2321;42.704;23.384;2023-02-10T04:23:21;97140.19;;;-6.63;100.00
4617;BME280;2321;42.704;23.384;2023-02-10T04:25:48;97148.13;;;-6.69;100.00
4617;BME280;2321;42.704;23.384;2023-02-10T04:28:15;97142.72;;;-6.61;100.00
4617;BME280;2321;42.704;23.384;2023-02-10T04:30:43;97113.22;;;-6.87;100.00
4617;BME280;2321;42.704;23.384;2023-02-10T04:33:11;97137.97;;;-6.77;100.00
4617;BME280;2321;42.704;23.384;2023-02-10T04:35:38;97142.81;;;-6.64;100.00
4617;BME280;2321;42.704;23.384;2023-02-10T04:38:05;97144.56;;;-6.65;100.00
4617;BME280;2321;42.704;23.384;2023-02-10T04:40:32;97105.03;;;-7.05;100.00
4617;BME280;2321;42.704;23.384;2023-02-10T04:42:59;97141.31;;;-6.72;100.00
4617;BME280;2321;42.704;23.384;2023-02-10T04:45:25;97149.31;;;-6.81;100.00
4617;BME280;2321;42.704;23.384;2023-02-10T04:47:54;97148.47;;;-6.82;100.00
4617;BME280;2321;42.704;23.384;2023-02-10T04:50:21;97147.69;;;-6.85;100.00
4617;BME280;2321;42.704;23.384;2023-02-10T04:52:47;97148.06;;;-7.01;100.00
4617;BME280;2321;42.704;23.384;2023-02-10T04:55:14;97149.72;;;-6.97;100.00
4617;BME280;2321;42.704;23.384;2023-02-10T04:57:41;97140.50;;;-7.09;100.00
4617;BME280;2321;42.704;23.384;2023-02-10T05:00:09;97152.22;;;-6.94;100.00
4617;BME280;2321;42.704;23.384;2023-02-10T05:02:36;97155.47;;;-6.85;100.00
4617;BME280;2321;42.704;23.384;2023-02-10T05:05:05;97153.34;;;-7.04;100.00
4617;BME280;2321;42.704;23.384;2023-02-10T05:07:32;97155.91;;;-7.03;100.00
4617;BME280;2321;42.704;23.384;2023-02-10T05:09:59;97166.41;;;-7.09;100.00
4617;BME280;2321;42.704;23.384;2023-02-10T05:12:26;97166.44;;;-7.11;100.00
4617;BME280;2321;42.704;23.384;2023-02-10T05:14:53;97175.03;;;-7.08;100.00
4617;BME280;2321;42.704;23.384;2023-02-10T05:17:20;97172.75;;;-7.23;100.00
4617;BME280;2321;42.704;23.384;2023-02-10T05:19:47;97181.97;;;-7.11;100.00
4617;BME280;2321;42.704;23.384;2023-02-10T05:22:15;97184.56;;;-7.11;100.00
4617;BME280;2321;42.704;23.384;2023-02-10T05:24:42;97185.41;;;-7.10;100.00
4617;BME280;2321;42.704;23.384;2023-02-10T05:27:09;97200.06;;;-7.09;100.00
4617;BME280;2321;42.704;23.384;2023-02-10T05:29:36;97197.34;;;-7.04;100.00
4617;BME280;2321;42.704;23.384;2023-02-10T05:32:03;97195.63;;;-7.04;100.00
4617;BME280;2321;42.704;23.384;2023-02-10T05:34:30;97198.50;;;-7.15;100.00
4617;BME280;2321;42.704;23.384;2023-02-10T05:36:57;97206.06;;;-7.07;100.00
4617;BME280;2321;42.704;23.384;2023-02-10T05:39:25;97211.22;;;-7.07;100.00
4617;BME280;2321;42.704;23.384;2023-02-10T05:41:53;97211.13;;;-7.02;100.00
4617;BME280;2321;42.704;23.384;2023-02-10T05:44:21;97218.13;;;-7.06;100.00
4617;BME280;2321;42.704;23.384;2023-02-10T05:46:48;97213.94;;;-7.12;100.00
4617;BME280;2321;42.704;23.384;2023-02-10T05:49:16;97211.31;;;-7.10;100.00
4617;BME280;2321;42.704;23.384;2023-02-10T05:51:43;97218.44;;;-7.20;100.00
4617;BME280;2321;42.704;23.384;2023-02-10T05:54:11;97216.56;;;-7.13;100.00
4617;BME280;2321;42.704;23.384;2023-02-10T05:56:39;97214.78;;;-7.11;100.00
4617;BME280;2321;42.704;23.384;2023-02-10T05:59:08;97230.38;;;-7.14;100.00
4617;BME280;2321;42.704;23.384;2023-02-10T06:01:35;97220.81;;;-7.11;100.00
4617;BME280;2321;42.704;23.384;2023-02-10T06:04:02;97218.19;;;-7.09;100.00
4617;BME280;2321;42.704;23.384;2023-02-10T06:06:29;97226.78;;;-7.07;100.00
4617;BME280;2321;42.704;23.384;2023-02-10T06:08:56;97221.66;;;-7.10;100.00
4617;BME280;2321;42.704;23.384;2023-02-10T06:11:23;97228.50;;;-7.07;100.00
4617;BME280;2321;42.704;23.384;2023-02-10T06:13:51;97229.34;;;-7.05;100.00
4617;BME280;2321;42.704;23.384;2023-02-10T06:16:18;97235.19;;;-6.98;100.00
4617;BME280;2321;42.704;23.384;2023-02-10T06:18:45;97235.97;;;-6.95;100.00
4617;BME280;2321;42.704;23.384;2023-02-10T06:21:13;97243.59;;;-6.89;100.00
4617;BME280;2321;42.704;23.384;2023-02-10T06:23:40;97246.31;;;-6.93;100.00
4617;BME280;2321;42.704;23.384;2023-02-10T06:26:07;97232.31;;;-6.86;100.00
4617;BME280;2321;42.704;23.384;2023-02-10T06:28:34;97250.22;;;-6.76;100.00
4617;BME280;2321;42.704;23.384;2023-02-10T06:31:02;97249.84;;;-6.61;100.00
4617;BME280;2321;42.704;23.384;2023-02-10T06:33:29;97258.25;;;-6.52;100.00
4617;BME280;2321;42.704;23.384;2023-02-10T06:35:56;97257.31;;;-6.48;100.00
4617;BME280;2321;42.704;23.384;2023-02-10T06:38:23;97257.31;;;-6.48;100.00
4617;BME280;2321;42.704;23.384;2023-02-10T06:40:50;97254.41;;;-6.36;100.00
4617;BME280;2321;42.704;23.384;2023-02-10T06:43:17;97255.81;;;-6.24;100.00
4617;BME280;2321;42.704;23.384;2023-02-10T06:45:43;97249.75;;;-6.22;100.00
4617;BME280;2321;42.704;23.384;2023-02-10T06:48:12;97260.06;;;-6.21;100.00
4617;BME280;2321;42.704;23.384;2023-02-10T06:50:39;97262.47;;;-6.15;100.00
4617;BME280;2321;42.704;23.384;2023-02-10T06:53:05;97261.78;;;-5.90;100.00
4617;BME280;2321;42.704;23.384;2023-02-10T06:55:33;97236.09;;;-5.99;100.00
4617;BME280;2321;42.704;23.384;2023-02-10T06:58:01;97260.44;;;-5.73;100.00
4617;BME280;2321;42.704;23.384;2023-02-10T07:00:29;97272.38;;;-5.67;100.00
4617;BME280;2321;42.704;23.384;2023-02-10T07:02:57;97277.47;;;-5.62;99.98
4617;BME280;2321;42.704;23.384;2023-02-10T07:05:26;97270.44;;;-5.59;99.65
4617;BME280;2321;42.704;23.384;2023-02-10T07:07:53;97267.78;;;-5.57;100.00
4617;BME280;2321;42.704;23.384;2023-02-10T07:10:20;97265.28;;;-5.60;100.00
4617;BME280;2321;42.704;23.384;2023-02-10T07:12:47;97261.00;;;-5.61;100.00
4617;BME280;2321;42.704;23.384;2023-02-10T07:15:14;97259.19;;;-5.59;100.00
4617;BME280;2321;42.704;23.384;2023-02-10T07:17:42;97255.16;;;-5.39;100.00
4617;BME280;2321;42.704;23.384;2023-02-10T07:20:10;97257.72;;;-5.38;100.00
4617;BME280;2321;42.704;23.384;2023-02-10T07:22:38;97252.09;;;-5.23;100.00
4617;BME280;2321;42.704;23.384;2023-02-10T07:25:05;97254.56;;;-5.19;100.00
4617;BME280;2321;42.704;23.384;2023-02-10T07:27:32;97260.28;;;-5.09;100.00
4617;BME280;2321;42.704;23.384;2023-02-10T07:29:59;97265.72;;;-4.88;100.00
4617;BME280;2321;42.704;23.384;2023-02-10T07:32:26;97260.38;;;-4.83;100.00
4617;BME280;2321;42.704;23.384;2023-02-10T07:34:53;97261.78;;;-4.73;100.00
4617;BME280;2321;42.704;23.384;2023-02-10T07:37:20;97261.00;;;-4.49;97.78
4617;BME280;2321;42.704;23.384;2023-02-10T07:39:48;97266.75;;;-4.39;96.39
4617;BME280;2321;42.704;23.384;2023-02-10T07:42:15;97255.34;;;-4.35;95.29
4617;BME280;2321;42.704;23.384;2023-02-10T07:44:42;97257.69;;;-4.27;93.19
4617;BME280;2321;42.704;23.384;2023-02-10T07:47:09;97252.63;;;-4.32;91.72
4617;BME280;2321;42.704;23.384;2023-02-10T07:49:37;97257.94;;;-4.35;92.15
4617;BME280;2321;42.704;23.384;2023-02-10T07:52:04;97257.81;;;-4.32;91.07
4617;BME280;2321;42.704;23.384;2023-02-10T07:54:31;97254.53;;;-4.37;92.18
4617;BME280;2321;42.704;23.384;2023-02-10T07:56:59;97252.72;;;-4.35;94.29
4617;BME280;2321;42.704;23.384;2023-02-10T07:59:26;97262.72;;;-4.22;93.82
4617;BME280;2321;42.704;23.384;2023-02-10T08:01:53;97260.84;;;-4.19;95.04
4617;BME280;2321;42.704;23.384;2023-02-10T08:04:20;97260.31;;;-4.03;94.15
4617;BME280;2321;42.704;23.384;2023-02-10T08:06:47;97255.47;;;-3.88;91.79
4617;BME280;2321;42.704;23.384;2023-02-10T08:09:14;97258.63;;;-3.80;89.83
4617;BME280;2321;42.704;23.384;2023-02-10T08:11:42;97255.78;;;-3.72;89.91
4617;BME280;2321;42.704;23.384;2023-02-10T08:14:11;97257.84;;;-3.58;90.18
4617;BME280;2321;42.704;23.384;2023-02-10T08:16:37;97247.09;;;-3.48;88.92
4617;BME280;2321;42.704;23.384;2023-02-10T08:19:04;97245.97;;;-3.41;88.95
4617;BME280;2321;42.704;23.384;2023-02-10T08:21:31;97245.38;;;-3.25;83.46
4617;BME280;2321;42.704;23.384;2023-02-10T08:23:58;97246.94;;;-3.21;81.19
4617;BME280;2321;42.704;23.384;2023-02-10T08:26:25;97251.84;;;-3.13;83.40
4617;BME280;2321;42.704;23.384;2023-02-10T08:28:52;97248.78;;;-3.01;85.13
4617;BME280;2321;42.704;23.384;2023-02-10T08:31:22;97236.44;;;-2.97;84.63
4617;BME280;2321;42.704;23.384;2023-02-10T08:33:48;97252.75;;;-2.92;83.96
4617;BME280;2321;42.704;23.384;2023-02-10T08:36:17;97250.50;;;-2.79;80.18
4617;BME280;2321;42.704;23.384;2023-02-10T08:38:45;97251.91;;;-2.70;75.84
4617;BME280;2321;42.704;23.384;2023-02-10T08:41:13;97251.91;;;-2.70;76.24
4617;BME280;2321;42.704;23.384;2023-02-10T08:43:40;97242.91;;;-2.63;77.15
4617;BME280;2321;42.704;23.384;2023-02-10T08:46:07;97243.53;;;-2.57;78.54
4617;BME280;2321;42.704;23.384;2023-02-10T08:48:36;97239.78;;;-2.50;76.57
4617;BME280;2321;42.704;23.384;2023-02-10T08:51:05;97243.03;;;-2.45;76.81
4617;BME280;2321;42.704;23.384;2023-02-10T08:53:33;97247.41;;;-2.45;80.84
4617;BME280;2321;42.704;23.384;2023-02-10T08:56:03;97241.63;;;-2.31;79.76
4617;BME280;2321;42.704;23.384;2023-02-10T08:58:30;97238.25;;;-2.14;75.38
4617;BME280;2321;42.704;23.384;2023-02-10T09:00:57;97231.94;;;-2.08;75.28
4617;BME280;2321;42.704;23.384;2023-02-10T09:03:25;97225.72;;;-2.05;75.60
4617;BME280;2321;42.704;23.384;2023-02-10T09:05:55;97226.97;;;-1.93;73.07
4617;BME280;2321;42.704;23.384;2023-02-10T09:08:22;97225.72;;;-1.84;68.82
4617;BME280;2321;42.704;23.384;2023-02-10T09:10:49;97232.47;;;-1.80;67.82
4617;BME280;2321;42.704;23.384;2023-02-10T09:13:16;97228.59;;;-1.71;68.25
4617;BME280;2321;42.704;23.384;2023-02-10T09:15:42;97221.91;;;-1.58;68.63
4617;BME280;2321;42.704;23.384;2023-02-10T09:18:10;97223.19;;;-1.47;69.27
4617;BME280;2321;42.704;23.384;2023-02-10T09:20:38;97226.91;;;-1.34;67.42
4617;BME280;2321;42.704;23.384;2023-02-10T09:23:06;97221.47;;;-1.29;65.80
4617;BME280;2321;42.704;23.384;2023-02-10T09:25:33;97229.59;;;-1.35;64.23
4617;BME280;2321;42.704;23.384;2023-02-10T09:28:00;97222.72;;;-1.38;63.66
4617;BME280;2321;42.704;23.384;2023-02-10T09:30:27;97222.66;;;-1.36;63.71
4617;BME280;2321;42.704;23.384;2023-02-10T09:32:54;97219.63;;;-1.27;65.27
4617;BME280;2321;42.704;23.384;2023-02-10T09:35:21;97215.44;;;-1.12;65.94
4617;BME280;2321;42.704;23.384;2023-02-10T09:37:48;97219.28;;;-1.01;62.80
4617;BME280;2321;42.704;23.384;2023-02-10T09:40:20;97211.94;;;-0.93;62.68
4617;BME280;2321;42.704;23.384;2023-02-10T09:43:04;97201.03;;;-0.83;63.35
4617;BME280;2321;42.704;23.384;2023-02-10T09:45:36;97197.88;;;-0.72;63.60
4617;BME280;2321;42.704;23.384;2023-02-10T09:48:20;97194.19;;;-0.68;62.28
4617;BME280;2321;42.704;23.384;2023-02-10T09:50:57;97194.41;;;-0.55;62.55
4617;BME280;2321;42.704;23.384;2023-02-10T09:53:30;97205.19;;;-0.43;61.86
4617;BME280;2321;42.704;23.384;2023-02-10T09:56:00;97190.53;;;-0.30;61.46
4617;BME280;2321;42.704;23.384;2023-02-10T09:58:33;97189.53;;;-0.27;61.52
4617;BME280;2321;42.704;23.384;2023-02-10T10:01:06;97184.91;;;-0.22;61.25
4617;BME280;2321;42.704;23.384;2023-02-10T10:03:44;97182.97;;;-0.18;59.39
4617;BME280;2321;42.704;23.384;2023-02-10T10:06:21;97175.28;;;-0.21;58.48
4617;BME280;2321;42.704;23.384;2023-02-10T10:08:57;97175.63;;;-0.12;59.15
4617;BME280;2321;42.704;23.384;2023-02-10T10:11:35;97166.91;;;0.06;59.43
4617;BME280;2321;42.704;23.384;2023-02-10T10:14:04;97157.53;;;0.18;59.73
4617;BME280;2321;42.704;23.384;2023-02-10T10:16:43;97163.53;;;0.36;56.78
4617;BME280;2321;42.704;23.384;2023-02-10T10:19:21;97150.34;;;0.38;55.52
4617;BME280;2321;42.704;23.384;2023-02-10T10:22:01;97152.06;;;0.39;55.75
4617;BME280;2321;42.704;23.384;2023-02-10T10:24:42;97153.75;;;0.40;55.92
4617;BME280;2321;42.704;23.384;2023-02-10T10:27:22;97148.41;;;0.58;56.34
4617;BME280;2321;42.704;23.384;2023-02-10T10:29:53;97147.63;;;0.72;56.89
4617;BME280;2321;42.704;23.384;2023-02-10T10:32:33;97120.22;;;0.78;56.51
4617;BME280;2321;42.704;23.384;2023-02-10T10:35:02;97137.78;;;0.92;54.71
4617;BME280;2321;42.704;23.384;2023-02-10T10:37:30;97126.63;;;0.88;54.58
4617;BME280;2321;42.704;23.384;2023-02-10T10:40:00;97120.19;;;0.94;54.49
4617;BME280;2321;42.704;23.384;2023-02-10T10:42:39;97122.16;;;1.05;54.27
4617;BME280;2321;42.704;23.384;2023-02-10T10:45:11;97120.59;;;1.17;52.81
4617;BME280;2321;42.704;23.384;2023-02-10T10:47:43;97121.59;;;1.30;53.49
4617;BME280;2321;42.704;23.384;2023-02-10T10:50:14;97108.22;;;1.50;53.54
4617;BME280;2321;42.704;23.384;2023-02-10T10:52:42;97115.91;;;1.68;53.91
4617;BME280;2321;42.704;23.384;2023-02-10T10:55:17;97116.75;;;1.83;53.05
4617;BME280;2321;42.704;23.384;2023-02-10T10:57:47;97106.59;;;1.91;53.18
4617;BME280;2321;42.704;23.384;2023-02-10T11:00:19;97096.66;;;1.96;52.29
4617;BME280;2321;42.704;23.384;2023-02-10T11:02:55;97102.28;;;2.05;51.78
4617;BME280;2321;42.704;23.384;2023-02-10T11:05:27;97093.63;;;2.17;51.15
4617;BME280;2321;42.704;23.384;2023-02-10T11:07:55;97098.66;;;2.35;50.70
4617;BME280;2321;42.704;23.384;2023-02-10T11:10:27;97091.22;;;2.42;50.70
4617;BME280;2321;42.704;23.384;2023-02-10T11:12:56;97096.53;;;2.55;48.50
4617;BME280;2321;42.704;23.384;2023-02-10T11:15:38;97090.78;;;2.63;48.81
4617;BME280;2321;42.704;23.384;2023-02-10T11:18:15;97085.75;;;2.73;48.62
4617;BME280;2321;42.704;23.384;2023-02-10T11:20:52;97085.97;;;2.83;48.44
4617;BME280;2321;42.704;23.384;2023-02-10T11:23:19;97083.59;;;2.93;47.72
4617;BME280;2321;42.704;23.384;2023-02-10T11:25:54;97079.81;;;2.97;47.70
4617;BME280;2321;42.704;23.384;2023-02-10T11:28:25;97077.81;;;3.01;46.95
4617;BME280;2321;42.704;23.384;2023-02-10T11:30:56;97067.84;;;3.06;47.64
4617;BME280;2321;42.704;23.384;2023-02-10T11:33:25;97066.56;;;3.12;48.02
4617;BME280;2321;42.704;23.384;2023-02-10T11:35:58;97066.56;;;3.12;47.02
4617;BME280;2321;42.704;23.384;2023-02-10T11:38:26;97075.00;;;3.17;47.04
4617;BME280;2321;42.704;23.384;2023-02-10T11:40:55;97067.41;;;3.25;47.00
4617;BME280;2321;42.704;23.384;2023-02-10T11:43:27;97069.75;;;3.30;46.46
4617;BME280;2321;42.704;23.384;2023-02-10T11:45:57;97061.31;;;3.38;46.60
4617;BME280;2321;42.704;23.384;2023-02-10T11:48:26;97059.53;;;3.38;44.62
4617;BME280;2321;42.704;23.384;2023-02-10T11:51:13;97060.81;;;3.46;45.96
4617;BME280;2321;42.704;23.384;2023-02-10T11:53:42;97064.38;;;3.58;45.51
4617;BME280;2321;42.704;23.384;2023-02-10T11:56:14;97056.91;;;3.65;45.32
4617;BME280;2321;42.704;23.384;2023-02-10T11:58:55;97037.69;;;3.76;45.99
4617;BME280;2321;42.704;23.384;2023-02-10T12:01:36;97046.72;;;3.85;44.08
4617;BME280;2321;42.704;23.384;2023-02-10T12:04:17;97033.78;;;3.68;44.76
4617;BME280;2321;42.704;23.384;2023-02-10T12:06:58;97033.19;;;3.52;43.79
4617;BME280;2321;42.704;23.384;2023-02-10T12:09:31;97036.69;;;3.39;43.77
4617;BME280;2321;42.704;23.384;2023-02-10T12:12:05;97025.94;;;3.42;43.44
4617;BME280;2321;42.704;23.384;2023-02-10T12:14:51;97026.78;;;3.30;43.54
4617;BME280;2321;42.704;23.384;2023-02-10T12:17:26;97022.69;;;3.12;43.49
4617;BME280;2321;42.704;23.384;2023-02-10T12:20:18;97022.47;;;3.15;43.82
4617;BME280;2321;42.704;23.384;2023-02-10T12:23:10;97009.09;;;3.19;43.68
4617;BME280;2321;42.704;23.384;2023-02-10T12:25:48;97017.31;;;3.27;43.93
4617;BME280;2321;42.704;23.384;2023-02-10T12:28:25;97009.91;;;3.32;43.59
4617;BME280;2321;42.704;23.384;2023-02-10T12:31:14;97027.63;;;3.43;44.08
4617;BME280;2321;42.704;23.384;2023-02-10T12:33:57;97008.44;;;3.41;44.44
4617;BME280;2321;42.704;23.384;2023-02-10T12:36:31;97009.63;;;3.37;44.52
4617;BME280;2321;42.704;23.384;2023-02-10T12:39:08;97004.88;;;3.42;44.18
4617;BME280;2321;42.704;23.384;2023-02-10T12:41:47;96999.25;;;3.47;44.58
4617;BME280;2321;42.704;23.384;2023-02-10T12:44:28;96995.81;;;3.46;44.11
4617;BME280;2321;42.704;23.384;2023-02-10T12:47:12;96993.19;;;3.46;43.16
4617;BME280;2321;42.704;23.384;2023-02-10T12:49:50;96991.25;;;3.62;43.39
4617;BME280;2321;42.704;23.384;2023-02-10T12:52:23;96992.41;;;3.70;43.97
4617;BME280;2321;42.704;23.384;2023-02-10T12:54:55;96991.09;;;3.89;42.87
4617;BME280;2321;42.704;23.384;2023-02-10T12:57:28;96992.09;;;4.00;42.41
4617;BME280;2321;42.704;23.384;2023-02-10T12:59:59;96993.47;;;4.17;43.29
4617;BME280;2321;42.704;23.384;2023-02-10T13:02:34;96991.03;;;4.27;43.16
4617;BME280;2321;42.704;23.384;2023-02-10T13:05:08;96996.44;;;4.25;42.64
4617;BME280;2321;42.704;23.384;2023-02-10T13:07:42;96998.03;;;4.40;42.79
4617;BME280;2321;42.704;23.384;2023-02-10T13:10:26;96994.63;;;4.26;41.74
4617;BME280;2321;42.704;23.384;2023-02-10T13:12:57;96992.00;;;4.26;42.11
4617;BME280;2321;42.704;23.384;2023-02-10T13:15:28;96994.50;;;4.28;42.47
4617;BME280;2321;42.704;23.384;2023-02-10T13:17:58;96988.59;;;4.24;42.31
4617;BME280;2321;42.704;23.384;2023-02-10T13:20:32;96986.28;;;4.32;41.62
4617;BME280;2321;42.704;23.384;2023-02-10T13:23:16;96988.59;;;4.24;41.89